Flight Track Log - Related Links

Times and Time Zones

All times are in EDT time to prevent confusion due to time zone crossing. See the UAL3776 flight status page for this flight to view local times or setup timezone preferences in your user account.

Time Position Orientation Groundspeed Altitude Reporting Facility
EDT Latitude Longitude Course Direction KTS MPH feet Rate Location/Type
Thu 04:05:29 PM 38.9333 -77.5333 218° Southwest 180 207 1,900  Level Potomac TRACON
Thu 04:06:23 PM 38.9000 -77.6000 237° Southwest 263 303 3,600 1,500 Climbing Potomac TRACON
Thu 04:07:00 PM 38.6501 -77.5937 189° South  Level Estimated
Thu 04:07:29 PM 38.8333 -77.6333 201° Southwest 259 298 4,900  Level Potomac TRACON
Thu 04:08:00 PM 38.5509 -77.6380 185° South  Level Estimated
Thu 04:08:29 PM 38.7667 -77.6167 169° South 266 306 7,100  Level Potomac TRACON
Thu 04:09:00 PM 38.4538 -77.5870 158° South  Level FlightAware Approximate
Thu 04:09:30 PM 38.6833 -77.6167 180° South 271 312 10,000  Level Potomac TRACON
Thu 04:10:00 PM 38.3556 -77.6344 218° Southwest  Level Estimated
Thu 04:11:02 PM 38.5758 -77.5781 164° South 280 322 13,600  Level Washington Center
Thu 04:12:02 PM 38.5000 -77.5125 146° Southeast 285 328 15,700 2,150 Climbing Washington Center
Thu 04:13:02 PM 38.4325 -77.5531 205° Southwest 274 315 17,900 2,100 Climbing Washington Center
Thu 04:14:02 PM 38.3522 -77.6064 208° Southwest 297 342 19,900 1,250 Climbing Washington Center
Thu 04:15:02 PM 38.2806 -77.6681 214° Southwest 335 386 20,400 1,250 Climbing Washington Center
Thu 04:16:02 PM 38.1892 -77.7500 215° Southwest 366 421 22,400 1,650 Climbing Washington Center
Thu 04:17:02 PM 38.1025 -77.8189 212° Southwest 372 428 23,700 800 Climbing Washington Center
Thu 04:18:02 PM 38.0219 -77.8878 214° Southwest 385 443 24,000 150 Climbing Washington Center
Thu 04:19:02 PM 37.9328 -77.9667 215° Southwest 392 451 24,000  Level Washington Center
Thu 04:20:03 PM 37.8394 -78.0450 214° Southwest 404 465 24,000  Level Washington Center
Thu 04:21:02 PM 37.7503 -78.1211 214° Southwest 404 465 24,000  Level Washington Center
Thu 04:22:02 PM 37.6506 -78.2069 214° Southwest 404 465 24,000 -50 Level Washington Center
Thu 04:23:02 PM 37.5656 -78.2800 214° Southwest 410 472 23,900 -550 Descending Washington Center
Thu 04:24:02 PM 37.4761 -78.3528 213° Southwest 403 464 22,900 -950 Descending Washington Center
Thu 04:25:02 PM 37.3889 -78.4281 214° Southwest 398 458 22,000 -450 Descending Washington Center
Thu 04:26:02 PM 37.3017 -78.4978 212° Southwest 391 450 22,000  Level Washington Center
Thu 04:27:02 PM 37.2122 -78.5728 214° Southwest 386 444 22,000  Level Washington Center
Thu 04:28:02 PM 37.1122 -78.6547 213° Southwest 386 444 22,000 -450 Level Washington Center
Thu 04:29:02 PM 37.0347 -78.7428 222° Southwest 386 444 21,100 -1,400 Descending Washington Center
Thu 04:30:02 PM 36.9675 -78.8414 230° Southwest 380 437 19,200 -1,900 Descending Washington Center
Thu 04:31:02 PM 36.9042 -78.9400 231° Southwest 380 437 17,300 -1,150 Descending Washington Center
Thu 04:32:02 PM 36.8436 -79.0125 224° Southwest 360 414 16,900 -150 Descending Washington Center
Thu 04:33:02 PM 36.7536 -79.0269 187° South 313 360 17,000 -149 Climbing Washington Center
Thu 04:34:03 PM 36.6517 -79.0119 173° South 323 372 16,600 -1,214 Descending Washington Center
Thu 04:34:26 PM 36.6103 -78.9997 167° South 345 397 15,300 -3,356 Descending Washington Center
Thu 04:35:02 PM 36.5567 -78.9844 167° South 331 381 13,300 -3,344 Descending Washington Center
Thu 04:35:27 PM 36.5153 -78.9697 164° South 347 399 11,900 -3,100 Descending Washington Center
Thu 04:36:02 PM 36.4633 -78.9597 171° South 344 396 10,200 -1,967 Descending Washington Center
Thu 04:36:28 PM 36.4242 -78.9453 163° South 346 398 9,900 -200 Descending Washington Center
Thu 04:37:02 PM 36.3811 -78.9228 157° South 343 395 10,000 -492 Climbing Washington Center
Thu 04:37:29 PM 36.3567 -78.8983 141° Southeast 261 300 9,400 -1,400 Descending Washington Center
Thu 04:38:02 PM 36.3242 -78.8686 144° Southeast 277 319 8,600 -1,556 Descending Washington Center
Thu 04:38:23 PM 36.3017 -78.8522 150° Southeast 252 290 8,000 -600 Descending Washington Center
Thu 04:39:02 PM 36.2631 -78.8147 142° Southeast 271 312 8,000 -90 Level Washington Center
Thu 04:39:30 PM 36.2406 -78.7956 146° Southeast 255 293 7,900 -600 Descending Washington Center
Thu 04:40:02 PM 36.2100 -78.7661 142° Southeast 250 288 7,400 -1,475 Descending Washington Center
Thu 04:40:31 PM 36.1833 -78.7444 147° Southeast 235 270 6,400 -1,300 Descending Washington Center
Thu 04:41:02 PM 36.1592 -78.7178 138° Southeast 243 280 6,100 -556 Descending Washington Center
Thu 04:41:25 PM 36.1406 -78.7042 149° Southeast 232 267 5,900 -400 Descending Washington Center
Thu 04:42:02 PM 36.1103 -78.6722 140° Southeast 232 267 5,700 -1,075 Descending Washington Center
Thu 04:42:32 PM 36.0858 -78.6456 139° Southeast 222 255 4,700 -1,600 Descending Washington Center
Thu 04:43:02 PM 36.0636 -78.6189 136° Southeast 227 261 4,100 -689 Descending Washington Center
Thu 04:43:33 PM 36.0367 -78.6075 161° South 203 234 4,000 -900 Descending Washington Center
Thu 04:44:02 PM 36.0117 -78.6117 188° South 185 213 3,200 -1,082 Descending Washington Center
Thu 04:44:34 PM 35.9942 -78.6419 234° Southwest 201 231 2,900 -563 Descending Washington Center

Login

Don't have an account? Register now (free) for customized features, flight alerts, and more!